createdAt,value
2022-10-07T00:01:22.201Z,18.77
2022-10-07T00:03:48.766Z,17.27
2022-10-07T00:06:18.919Z,17.43
2022-10-07T00:08:52.291Z,17.10
2022-10-07T00:11:22.613Z,17.63
2022-10-07T00:13:49.641Z,17.30
2022-10-07T00:16:17.504Z,16.10
2022-10-07T00:18:44.136Z,18.13
2022-10-07T00:21:12.117Z,18.57
2022-10-07T00:23:39.226Z,17.50
2022-10-07T00:26:06.615Z,18.50
2022-10-07T00:28:33.351Z,19.00
2022-10-07T00:31:04.068Z,20.00
2022-10-07T00:33:30.823Z,18.87
2022-10-07T00:35:57.308Z,18.87
2022-10-07T00:38:23.819Z,18.57
2022-10-07T00:40:50.323Z,17.50
2022-10-07T00:43:24.389Z,17.27
2022-10-07T00:45:50.915Z,16.70
2022-10-07T00:48:19.981Z,17.13
2022-10-07T00:50:47.578Z,16.50
2022-10-07T00:53:14.066Z,16.67
2022-10-07T00:55:40.527Z,15.87
2022-10-07T00:58:09.506Z,16.00
2022-10-07T01:00:36.757Z,15.27
2022-10-07T01:03:03.325Z,16.43
2022-10-07T01:05:29.925Z,15.17
2022-10-07T01:07:59.204Z,16.53
2022-10-07T01:10:26.733Z,15.80
2022-10-07T01:13:05.618Z,15.97
2022-10-07T01:15:32.394Z,16.13
2022-10-07T01:18:11.190Z,15.77
2022-10-07T01:20:41.116Z,16.03
2022-10-07T01:23:14.588Z,15.97
2022-10-07T01:25:45.308Z,14.90
2022-10-07T01:28:16.332Z,15.83
2022-10-07T01:30:45.081Z,15.93
2022-10-07T01:33:13.587Z,15.63
2022-10-07T01:35:41.210Z,15.73
2022-10-07T01:38:08.273Z,16.03
2022-10-07T01:40:36.218Z,15.23
2022-10-07T01:43:02.756Z,15.13
2022-10-07T01:45:30.412Z,15.20
2022-10-07T01:47:57.006Z,14.97
2022-10-07T01:50:24.536Z,15.63
2022-10-07T01:52:56.980Z,15.47
2022-10-07T01:55:52.904Z,14.50
2022-10-07T01:58:19.412Z,14.37
2022-10-07T02:01:08.999Z,13.90
2022-10-07T02:03:43.078Z,14.23
2022-10-07T02:06:11.389Z,14.03
2022-10-07T02:08:55.950Z,13.87
2022-10-07T02:11:26.246Z,12.77
2022-10-07T02:14:14.525Z,13.30
2022-10-07T02:16:41.877Z,13.73
2022-10-07T02:19:10.255Z,13.23
2022-10-07T02:21:37.200Z,13.53
2022-10-07T02:24:03.937Z,15.63
2022-10-07T02:26:30.831Z,13.43
2022-10-07T02:28:57.287Z,13.93
2022-10-07T02:31:24.714Z,15.13
2022-10-07T02:33:54.025Z,14.57
2022-10-07T02:36:22.394Z,14.37
2022-10-07T02:38:48.861Z,14.53
2022-10-07T02:41:31.466Z,15.10
2022-10-07T02:44:04.727Z,14.47
2022-10-07T02:46:32.081Z,16.10
2022-10-07T02:48:59.722Z,17.63
2022-10-07T02:51:28.347Z,16.03
2022-10-07T02:53:54.852Z,18.13
2022-10-07T02:56:21.505Z,18.03
2022-10-07T02:58:48.040Z,17.60
2022-10-07T03:01:16.488Z,18.67
2022-10-07T03:03:43.685Z,19.13
2022-10-07T03:06:12.023Z,20.80
2022-10-07T03:08:38.486Z,21.80
2022-10-07T03:11:04.963Z,20.27
2022-10-07T03:13:31.503Z,22.30
2022-10-07T03:15:58.672Z,22.17
2022-10-07T03:18:29.368Z,22.73
2022-10-07T03:20:56.155Z,22.27
2022-10-07T03:23:26.555Z,22.87
2022-10-07T03:25:53.620Z,23.40
2022-10-07T03:28:20.893Z,23.27
2022-10-07T03:30:47.942Z,23.23
2022-10-07T03:33:14.826Z,22.93
2022-10-07T03:35:41.478Z,24.87
2022-10-07T03:38:08.630Z,22.20
2022-10-07T03:40:35.576Z,21.97
2022-10-07T03:43:02.634Z,19.70
2022-10-07T03:45:31.059Z,22.07
2022-10-07T03:47:57.814Z,20.27
2022-10-07T03:50:24.706Z,18.80
2022-10-07T03:52:51.202Z,18.43
2022-10-07T03:55:17.680Z,17.83
2022-10-07T03:57:50.314Z,19.20
2022-10-07T04:00:17.455Z,17.90
2022-10-07T04:02:43.953Z,15.90
2022-10-07T04:05:10.521Z,16.93
2022-10-07T04:07:36.989Z,15.23
2022-10-07T04:10:03.653Z,17.23
2022-10-07T04:12:33.553Z,15.30
2022-10-07T04:15:02.041Z,16.80
2022-10-07T04:17:28.833Z,16.70
2022-10-07T04:19:55.324Z,16.67
2022-10-07T04:22:21.784Z,18.03
2022-10-07T04:25:08.310Z,18.33
2022-10-07T04:27:51.119Z,17.47
2022-10-07T04:30:18.495Z,17.77
2022-10-07T04:32:45.003Z,17.00
2022-10-07T04:35:11.463Z,17.03
2022-10-07T04:37:38.006Z,16.50
2022-10-07T04:40:04.535Z,17.13
2022-10-07T04:42:49.717Z,18.07
2022-10-07T04:45:16.230Z,16.87
2022-10-07T04:47:44.721Z,17.97
2022-10-07T04:50:11.404Z,17.90
2022-10-07T04:52:41.324Z,18.40
2022-10-07T04:55:08.125Z,16.93
2022-10-07T04:57:34.870Z,17.83
2022-10-07T05:00:01.887Z,17.63
2022-10-07T05:02:28.512Z,17.13
2022-10-07T05:04:55.104Z,16.57
2022-10-07T05:07:21.603Z,16.37
2022-10-07T05:09:48.127Z,17.20
2022-10-07T05:12:15.999Z,15.87
2022-10-07T05:14:43.264Z,17.00
2022-10-07T05:17:10.018Z,18.13
2022-10-07T05:19:36.580Z,17.23
2022-10-07T05:22:06.084Z,17.83
2022-10-07T05:24:32.679Z,18.00
2022-10-07T05:26:59.136Z,15.83
2022-10-07T05:29:25.755Z,17.87
2022-10-07T05:31:52.363Z,17.67
2022-10-07T05:34:19.827Z,18.43
2022-10-07T05:36:46.358Z,17.43
2022-10-07T05:39:12.877Z,17.13
2022-10-07T05:41:45.423Z,16.73
2022-10-07T05:44:12.759Z,16.97
2022-10-07T05:46:40.309Z,17.57
2022-10-07T05:49:06.887Z,15.30
2022-10-07T05:51:33.406Z,16.87
2022-10-07T05:54:02.238Z,18.20
2022-10-07T05:56:28.866Z,16.53
2022-10-07T05:58:57.419Z,17.83
2022-10-07T06:01:24.127Z,16.40
2022-10-07T06:03:51.697Z,17.87
2022-10-07T06:06:18.279Z,17.33
2022-10-07T06:08:44.830Z,14.80
2022-10-07T06:11:30.992Z,14.90
2022-10-07T06:13:57.542Z,15.57
2022-10-07T06:16:24.354Z,15.90
2022-10-07T06:18:52.549Z,15.77
2022-10-07T06:21:19.585Z,15.13
2022-10-07T06:23:51.358Z,15.60
2022-10-07T06:26:17.924Z,15.70
2022-10-07T06:28:44.467Z,15.03
2022-10-07T06:31:11.809Z,14.17
2022-10-07T06:33:38.545Z,15.37
2022-10-07T06:36:05.593Z,14.57
2022-10-07T06:38:32.214Z,14.80
2022-10-07T06:40:59.121Z,14.77
2022-10-07T06:43:26.525Z,15.53
2022-10-07T06:45:53.148Z,16.87
2022-10-07T06:48:19.699Z,16.40
2022-10-07T06:50:51.198Z,16.13
2022-10-07T06:53:17.940Z,16.73
2022-10-07T06:55:44.473Z,16.87
2022-10-07T06:58:12.057Z,16.23
2022-10-07T07:00:39.107Z,16.17
2022-10-07T07:03:05.707Z,15.33
2022-10-07T07:05:34.694Z,16.33
2022-10-07T07:08:01.287Z,13.73
2022-10-07T07:10:27.867Z,12.97
2022-10-07T07:12:54.707Z,12.47
2022-10-07T07:15:21.684Z,12.47
2022-10-07T07:17:48.740Z,11.23
2022-10-07T07:20:15.627Z,11.30
2022-10-07T07:22:43.271Z,10.40
2022-10-07T07:25:12.675Z,10.87
2022-10-07T07:27:39.238Z,9.37
2022-10-07T07:30:06.054Z,10.07
2022-10-07T07:32:32.603Z,8.97
2022-10-07T07:35:02.160Z,7.77
2022-10-07T07:37:30.314Z,8.23
2022-10-07T07:39:56.864Z,7.70
2022-10-07T07:42:23.672Z,6.80
2022-10-07T07:44:50.312Z,7.07
2022-10-07T07:47:17.234Z,7.93
2022-10-07T07:49:43.821Z,6.93
2022-10-07T07:52:10.438Z,6.77
2022-10-07T07:54:37.862Z,7.53
2022-10-07T07:57:04.443Z,7.60
2022-10-07T07:59:32.928Z,6.87
2022-10-07T08:01:59.568Z,6.23
2022-10-07T08:04:26.177Z,6.63
2022-10-07T08:06:52.729Z,8.00
2022-10-07T08:09:19.284Z,7.70
2022-10-07T08:11:45.934Z,7.27
2022-10-07T08:14:16.226Z,7.77
2022-10-07T08:16:46.160Z,7.60
2022-10-07T08:19:12.671Z,7.97
2022-10-07T08:21:39.289Z,7.72
2022-10-07T08:24:06.034Z,7.80
2022-10-07T08:26:33.289Z,8.17
2022-10-07T08:29:00.621Z,7.63
2022-10-07T08:31:30.290Z,8.37
2022-10-07T08:33:58.118Z,8.23
2022-10-07T08:36:27.557Z,8.32
2022-10-07T08:38:54.218Z,8.40
2022-10-07T08:41:39.126Z,7.45
2022-10-07T08:44:20.915Z,8.50
2022-10-07T08:46:47.501Z,6.32
2022-10-07T08:49:15.955Z,7.43
2022-10-07T08:51:42.445Z,6.95
2022-10-07T08:54:09.015Z,8.27
2022-10-07T08:56:35.678Z,7.95
2022-10-07T08:59:23.605Z,7.95
2022-10-07T09:02:09.061Z,8.43
2022-10-07T09:04:35.809Z,7.32
2022-10-07T09:07:08.316Z,7.40
2022-10-07T09:09:37.303Z,7.93
2022-10-07T09:12:04.873Z,7.85
2022-10-07T09:14:32.348Z,8.13
2022-10-07T09:17:05.034Z,8.18
2022-10-07T09:19:38.302Z,7.45
2022-10-07T09:22:25.078Z,8.40
2022-10-07T09:24:56.491Z,6.40
2022-10-07T09:27:23.157Z,7.78
2022-10-07T09:29:51.334Z,7.13
2022-10-07T09:32:18.829Z,6.63
2022-10-07T09:34:46.155Z,6.88
2022-10-07T09:37:15.854Z,5.75
2022-10-07T09:39:42.812Z,5.50
2022-10-07T09:42:26.577Z,6.30
2022-10-07T09:44:53.735Z,6.40
2022-10-07T09:47:21.788Z,6.85
2022-10-07T09:49:49.417Z,7.00
2022-10-07T09:52:16.131Z,5.93
2022-10-07T09:54:43.227Z,6.40
2022-10-07T09:57:22.772Z,6.10
2022-10-07T09:59:49.325Z,5.80
2022-10-07T10:02:15.845Z,6.50
2022-10-07T10:04:55.163Z,6.30
2022-10-07T10:07:21.670Z,6.32
2022-10-07T10:09:51.641Z,6.10
2022-10-07T10:12:18.691Z,5.38
2022-10-07T10:14:51.370Z,5.47
2022-10-07T10:17:21.738Z,4.55
2022-10-07T10:19:48.253Z,5.95
2022-10-07T10:22:23.544Z,5.72
2022-10-07T10:25:08.599Z,5.78
2022-10-07T10:27:37.750Z,5.63
2022-10-07T10:30:12.224Z,5.20
2022-10-07T10:32:41.985Z,5.30
2022-10-07T10:35:20.592Z,4.85
2022-10-07T10:38:00.482Z,4.90
2022-10-07T10:40:29.979Z,4.70
2022-10-07T10:42:56.592Z,4.28
2022-10-07T10:45:31.371Z,4.55
2022-10-07T10:48:01.062Z,4.93
2022-10-07T10:50:30.235Z,4.80
2022-10-07T10:53:16.238Z,3.95
2022-10-07T10:55:49.914Z,3.75
2022-10-07T10:58:25.474Z,3.80
2022-10-07T11:01:13.817Z,2.92
2022-10-07T11:03:55.958Z,2.70
2022-10-07T11:06:22.453Z,3.30
2022-10-07T11:08:48.942Z,3.00
2022-10-07T11:11:16.856Z,2.83
2022-10-07T11:13:54.506Z,3.42
2022-10-07T11:16:25.269Z,2.95
2022-10-07T11:18:55.545Z,2.85
2022-10-07T11:21:26.266Z,3.70
2022-10-07T11:23:55.767Z,2.35
2022-10-07T11:26:22.309Z,2.42
2022-10-07T11:28:48.969Z,2.40
2022-10-07T11:31:27.631Z,2.90
2022-10-07T11:34:00.624Z,2.55
2022-10-07T11:36:36.271Z,2.05
2022-10-07T11:39:02.814Z,1.67
2022-10-07T11:41:33.649Z,2.42
2022-10-07T11:44:04.190Z,1.70
2022-10-07T11:46:33.863Z,2.03
2022-10-07T11:49:01.871Z,2.28
2022-10-07T11:51:29.412Z,1.90
2022-10-07T11:53:56.434Z,2.10
2022-10-07T11:56:23.945Z,2.00
2022-10-07T11:59:00.587Z,1.80
2022-10-07T12:01:28.975Z,2.42
2022-10-07T12:04:00.298Z,1.90
2022-10-07T12:06:26.899Z,1.88
2022-10-07T12:08:53.857Z,1.88
2022-10-07T12:11:22.909Z,1.85
2022-10-07T12:13:50.824Z,1.83
2022-10-07T12:16:23.525Z,2.30
2022-10-07T12:19:06.458Z,2.15
2022-10-07T12:21:51.735Z,1.92
2022-10-07T12:24:18.149Z,2.47
2022-10-07T12:26:45.299Z,2.20
2022-10-07T12:29:22.523Z,2.30
2022-10-07T12:31:49.158Z,2.35
2022-10-07T12:34:34.821Z,2.67
2022-10-07T12:37:21.557Z,1.98
2022-10-07T12:39:48.007Z,1.80
2022-10-07T12:42:14.818Z,1.95
2022-10-07T12:44:43.934Z,2.40
2022-10-07T12:47:16.244Z,1.88
2022-10-07T12:49:52.033Z,2.33
2022-10-07T12:52:19.502Z,2.40
2022-10-07T12:54:51.645Z,2.33
2022-10-07T12:57:18.816Z,2.58
2022-10-07T12:59:57.848Z,2.35
2022-10-07T13:02:43.544Z,2.88
2022-10-07T13:05:13.340Z,2.95
2022-10-07T13:07:58.305Z,3.03
2022-10-07T13:10:30.889Z,2.85
2022-10-07T13:13:04.690Z,2.17
2022-10-07T13:15:31.599Z,3.03
2022-10-07T13:18:08.615Z,2.88
2022-10-07T13:20:51.359Z,2.85
2022-10-07T13:23:20.113Z,2.85
2022-10-07T13:25:55.843Z,2.38
2022-10-07T13:28:23.695Z,2.40
2022-10-07T13:30:50.656Z,2.20
2022-10-07T13:33:21.611Z,2.85
2022-10-07T13:35:48.374Z,2.30
2022-10-07T13:38:24.727Z,2.40
2022-10-07T13:40:59.213Z,2.65
2022-10-07T13:43:28.962Z,2.63
2022-10-07T13:45:57.391Z,2.80
2022-10-07T13:48:28.466Z,2.67
2022-10-07T13:50:55.801Z,2.28
2022-10-07T13:53:26.716Z,2.65
2022-10-07T13:56:04.153Z,2.30
2022-10-07T13:58:32.825Z,2.90
2022-10-07T14:00:59.794Z,1.98
2022-10-07T14:03:26.302Z,2.75
2022-10-07T14:05:53.087Z,3.03
2022-10-07T14:08:21.364Z,2.50
2022-10-07T14:10:53.838Z,2.40
2022-10-07T14:13:20.671Z,2.33
2022-10-07T14:15:48.560Z,2.25
2022-10-07T14:18:15.767Z,2.42
2022-10-07T14:20:45.379Z,2.30
2022-10-07T14:23:17.443Z,2.13
2022-10-07T14:25:47.096Z,2.30
2022-10-07T14:28:17.975Z,2.25
2022-10-07T14:31:03.814Z,1.70
2022-10-07T14:34:09.391Z,3.83
2022-10-07T14:36:36.268Z,3.80
2022-10-07T14:39:23.526Z,3.83
2022-10-07T14:41:49.976Z,3.83
2022-10-07T14:44:17.001Z,2.72
2022-10-07T14:46:43.462Z,2.45
2022-10-07T14:49:10.137Z,2.28
2022-10-07T14:51:36.608Z,2.30
2022-10-07T14:54:03.663Z,2.30
2022-10-07T14:56:31.100Z,3.17
2022-10-07T14:58:57.586Z,3.03
2022-10-07T15:01:24.819Z,2.53
2022-10-07T15:03:51.444Z,3.03
2022-10-07T15:06:18.065Z,2.78
2022-10-07T15:08:44.786Z,2.50
2022-10-07T15:11:13.765Z,3.15
2022-10-07T15:13:40.182Z,2.83
2022-10-07T15:16:09.470Z,3.33
2022-10-07T15:18:39.867Z,2.95
2022-10-07T15:21:08.925Z,3.78
2022-10-07T15:23:35.355Z,3.28
2022-10-07T15:26:02.578Z,3.42
2022-10-07T15:28:30.025Z,3.30
2022-10-07T15:31:06.715Z,3.75
2022-10-07T15:33:33.284Z,3.55
2022-10-07T15:36:00.311Z,3.38
2022-10-07T15:38:27.211Z,3.33
2022-10-07T15:40:54.788Z,3.22
2022-10-07T15:43:21.329Z,3.25
2022-10-07T15:45:50.283Z,3.80
2022-10-07T15:48:23.130Z,4.28
2022-10-07T15:50:49.980Z,4.68
2022-10-07T15:53:16.816Z,4.13
2022-10-07T15:55:51.067Z,4.15
2022-10-07T15:58:18.405Z,4.13
2022-10-07T16:00:55.993Z,4.57
2022-10-07T16:03:22.618Z,4.55
2022-10-07T16:05:56.275Z,5.32
2022-10-07T16:08:22.756Z,4.55
2022-10-07T16:10:49.327Z,4.88
2022-10-07T16:13:15.932Z,6.72
2022-10-07T16:15:42.758Z,7.28
2022-10-07T16:18:09.277Z,7.93
2022-10-07T16:20:39.213Z,7.10
2022-10-07T16:23:05.751Z,7.03
2022-10-07T16:25:32.211Z,6.57
2022-10-07T16:28:17.593Z,5.57
2022-10-07T16:30:49.140Z,6.18
2022-10-07T16:33:15.704Z,5.93
2022-10-07T16:35:45.076Z,5.93
2022-10-07T16:38:11.541Z,5.78
2022-10-07T16:40:38.242Z,6.22
2022-10-07T16:43:04.687Z,5.72
2022-10-07T16:45:31.208Z,6.38
2022-10-07T16:47:58.733Z,6.72
2022-10-07T16:50:25.303Z,7.00
2022-10-07T16:52:51.728Z,7.60
2022-10-07T16:55:18.203Z,7.25
2022-10-07T16:57:47.028Z,7.65
2022-10-07T17:00:14.728Z,7.53
2022-10-07T17:02:41.178Z,8.20
2022-10-07T17:05:09.163Z,8.65
2022-10-07T17:07:35.821Z,8.93
2022-10-07T17:10:02.232Z,9.02
2022-10-07T17:12:29.388Z,8.68
2022-10-07T17:14:55.996Z,8.85
2022-10-07T17:17:22.522Z,8.45
2022-10-07T17:19:48.996Z,9.32
2022-10-07T17:22:15.509Z,9.85
2022-10-07T17:24:42.282Z,8.55
2022-10-07T17:27:09.055Z,7.70
2022-10-07T17:29:38.666Z,8.77
2022-10-07T17:32:05.625Z,7.63
2022-10-07T17:34:34.260Z,8.10
2022-10-07T17:37:00.856Z,7.93
2022-10-07T17:39:27.498Z,7.72
2022-10-07T17:41:54.091Z,8.25
2022-10-07T17:44:21.598Z,8.43
2022-10-07T17:46:49.200Z,7.88
2022-10-07T17:49:15.903Z,8.75
2022-10-07T17:51:45.400Z,7.80
2022-10-07T17:54:12.585Z,8.35
2022-10-07T17:56:39.399Z,8.35
2022-10-07T17:59:05.957Z,8.05
2022-10-07T18:01:34.070Z,8.25
2022-10-07T18:04:01.400Z,8.80
2022-10-07T18:06:29.046Z,7.93
2022-10-07T18:08:55.706Z,9.27
2022-10-07T18:11:22.226Z,8.80
2022-10-07T18:14:07.585Z,8.88
2022-10-07T18:16:34.482Z,9.10
2022-10-07T18:19:01.075Z,10.10
2022-10-07T18:21:29.985Z,11.30
2022-10-07T18:23:57.721Z,10.07
2022-10-07T18:26:24.701Z,10.43
2022-10-07T18:28:51.165Z,12.02
2022-10-07T18:31:17.885Z,12.05
2022-10-07T18:33:46.380Z,14.98
2022-10-07T18:36:16.566Z,16.77
2022-10-07T18:38:43.536Z,14.75
2022-10-07T18:41:10.943Z,12.98
2022-10-07T18:43:37.593Z,13.52
2022-10-07T18:46:05.600Z,15.35
2022-10-07T18:48:32.619Z,13.85
2022-10-07T18:50:59.851Z,13.35
2022-10-07T18:53:26.612Z,12.75
2022-10-07T18:55:53.229Z,11.93
2022-10-07T18:58:19.831Z,11.52
2022-10-07T19:00:46.422Z,12.00
2022-10-07T19:03:13.098Z,11.23
2022-10-07T19:05:40.073Z,12.77
2022-10-07T19:08:06.886Z,12.77
2022-10-07T19:10:41.801Z,13.25
2022-10-07T19:13:33.181Z,12.60
2022-10-07T19:16:03.882Z,11.95
2022-10-07T19:18:33.293Z,12.75
2022-10-07T19:21:00.075Z,12.07
2022-10-07T19:23:27.374Z,13.32
2022-10-07T19:25:57.549Z,13.20
2022-10-07T19:28:24.921Z,14.13
2022-10-07T19:30:51.989Z,13.55
2022-10-07T19:33:18.694Z,14.32
2022-10-07T19:35:45.241Z,14.70
2022-10-07T19:38:12.027Z,14.70
2022-10-07T19:40:42.037Z,14.50
2022-10-07T19:43:10.345Z,15.45
2022-10-07T19:45:37.932Z,14.95
2022-10-07T19:48:06.868Z,14.13
2022-10-07T19:50:35.197Z,13.60
2022-10-07T19:53:01.714Z,14.90
2022-10-07T19:55:28.564Z,14.30
2022-10-07T19:57:58.491Z,15.15
2022-10-07T20:00:25.298Z,14.77
2022-10-07T20:02:52.033Z,13.63
2022-10-07T20:05:18.601Z,13.30
2022-10-07T20:07:45.379Z,14.35
2022-10-07T20:10:11.965Z,14.00
2022-10-07T20:12:40.639Z,13.70
2022-10-07T20:15:07.492Z,13.73
2022-10-07T20:17:34.172Z,13.80
2022-10-07T20:20:03.010Z,14.05
2022-10-07T20:22:30.210Z,14.75
2022-10-07T20:24:56.672Z,14.40
2022-10-07T20:27:23.365Z,14.68
2022-10-07T20:29:58.979Z,14.98
2022-10-07T20:32:26.373Z,15.10
2022-10-07T20:34:53.145Z,14.45
2022-10-07T20:37:19.761Z,16.40
2022-10-07T20:40:05.010Z,16.20
2022-10-07T20:42:32.274Z,16.27
2022-10-07T20:44:58.940Z,15.90
2022-10-07T20:47:30.582Z,16.85
2022-10-07T20:49:59.510Z,15.35
2022-10-07T20:52:26.696Z,15.98
2022-10-07T20:54:54.308Z,15.85
2022-10-07T20:57:21.893Z,16.90
2022-10-07T20:59:48.412Z,16.75
2022-10-07T21:02:15.229Z,16.00
2022-10-07T21:04:41.960Z,15.70
2022-10-07T21:07:08.809Z,16.90
2022-10-07T21:09:39.846Z,16.15
2022-10-07T21:12:07.601Z,16.33
2022-10-07T21:14:37.476Z,15.95
2022-10-07T21:17:04.961Z,17.10
2022-10-07T21:19:37.724Z,16.40
2022-10-07T21:22:04.484Z,15.70
2022-10-07T21:24:34.334Z,15.90
2022-10-07T21:27:01.808Z,16.70
2022-10-07T21:29:31.375Z,17.45
2022-10-07T21:31:58.377Z,15.75
2022-10-07T21:34:24.911Z,16.27
2022-10-07T21:36:53.881Z,16.30
2022-10-07T21:39:20.655Z,16.70
2022-10-07T21:41:48.201Z,16.60
2022-10-07T21:44:14.782Z,18.13
2022-10-07T21:46:42.806Z,25.98
2022-10-07T21:49:09.442Z,23.60
2022-10-07T21:51:35.921Z,18.95
2022-10-07T21:54:02.567Z,20.50
2022-10-07T21:56:29.800Z,22.70
2022-10-07T21:58:58.214Z,23.98
2022-10-07T22:01:24.894Z,20.83
2022-10-07T22:03:55.051Z,20.27
2022-10-07T22:06:21.557Z,22.75
2022-10-07T22:08:48.074Z,20.45
2022-10-07T22:11:15.522Z,20.85
2022-10-07T22:13:42.576Z,19.77
2022-10-07T22:16:14.940Z,18.25
2022-10-07T22:18:42.335Z,18.05
2022-10-07T22:21:12.961Z,17.90
2022-10-07T22:23:40.015Z,17.80
2022-10-07T22:26:07.288Z,17.92
2022-10-07T22:28:37.657Z,20.77
2022-10-07T22:31:04.698Z,22.65
2022-10-07T22:33:31.159Z,21.45
2022-10-07T22:35:57.724Z,20.85
2022-10-07T22:38:25.361Z,19.35
2022-10-07T22:40:52.001Z,19.25
2022-10-07T22:43:18.432Z,20.67
2022-10-07T22:45:53.729Z,18.85
2022-10-07T22:48:20.241Z,19.63
2022-10-07T22:50:46.755Z,17.52
2022-10-07T22:53:13.211Z,18.52
2022-10-07T22:55:39.620Z,20.42
2022-10-07T22:58:06.216Z,21.65
2022-10-07T23:00:33.541Z,23.48
2022-10-07T23:03:00.114Z,24.85
2022-10-07T23:05:26.760Z,24.55
2022-10-07T23:07:53.229Z,20.08
2022-10-07T23:10:19.671Z,21.10
2022-10-07T23:12:46.794Z,23.05
2022-10-07T23:15:13.503Z,22.77
2022-10-07T23:17:39.951Z,21.10
2022-10-07T23:20:06.720Z,22.00
2022-10-07T23:22:34.715Z,23.92
2022-10-07T23:25:03.103Z,23.83
2022-10-07T23:27:29.539Z,22.83
2022-10-07T23:29:56.042Z,21.60
2022-10-07T23:32:22.545Z,20.80
2022-10-07T23:34:48.984Z,20.42
2022-10-07T23:37:15.412Z,22.13
2022-10-07T23:39:41.872Z,19.95
2022-10-07T23:42:08.323Z,20.73
2022-10-07T23:44:35.057Z,20.40
2022-10-07T23:47:01.498Z,20.52
2022-10-07T23:49:27.953Z,20.45
2022-10-07T23:51:54.379Z,21.08
2022-10-07T23:54:20.860Z,22.38
2022-10-07T23:56:47.272Z,21.80
2022-10-07T23:59:14.343Z,22.45
